sensor_id;sensor_type;location;lat;lon;timestamp;P1;durP1;ratioP1;P2;durP2;ratioP2
74102;SDS011;62853;46.166;3.640;2024-03-23T00:54:19;0.93;;;0.45;;
74102;SDS011;62853;46.166;3.640;2024-03-23T00:56:44;1.73;;;0.70;;
74102;SDS011;62853;46.166;3.640;2024-03-23T00:59:10;1.80;;;0.73;;
74102;SDS011;62853;46.166;3.640;2024-03-23T01:01:35;0.90;;;0.52;;
74102;SDS011;62853;46.166;3.640;2024-03-23T01:04:00;0.85;;;0.60;;
74102;SDS011;62853;46.166;3.640;2024-03-23T01:06:26;0.98;;;0.60;;
74102;SDS011;62853;46.166;3.640;2024-03-23T01:08:51;1.10;;;0.60;;
74102;SDS011;62853;46.166;3.640;2024-03-23T01:11:17;1.38;;;0.65;;
74102;SDS011;62853;46.166;3.640;2024-03-23T01:13:42;1.55;;;0.60;;
74102;SDS011;62853;46.166;3.640;2024-03-23T01:16:08;1.05;;;0.57;;
74102;SDS011;62853;46.166;3.640;2024-03-23T01:18:33;0.93;;;0.52;;
74102;SDS011;62853;46.166;3.640;2024-03-23T01:20:58;1.67;;;0.50;;
74102;SDS011;62853;46.166;3.640;2024-03-23T01:23:24;1.05;;;0.50;;
74102;SDS011;62853;46.166;3.640;2024-03-23T01:25:52;2.55;;;0.65;;
74102;SDS011;62853;46.166;3.640;2024-03-23T01:28:19;0.68;;;0.50;;
74102;SDS011;62853;46.166;3.640;2024-03-23T01:30:44;0.80;;;0.45;;
74102;SDS011;62853;46.166;3.640;2024-03-23T01:33:10;0.80;;;0.50;;
74102;SDS011;62853;46.166;3.640;2024-03-23T01:35:35;0.75;;;0.40;;
74102;SDS011;62853;46.166;3.640;2024-03-23T01:38:00;1.27;;;0.50;;
74102;SDS011;62853;46.166;3.640;2024-03-23T01:40:26;1.38;;;0.52;;
74102;SDS011;62853;46.166;3.640;2024-03-23T01:42:58;1.63;;;0.65;;
74102;SDS011;62853;46.166;3.640;2024-03-23T01:45:28;0.85;;;0.60;;
74102;SDS011;62853;46.166;3.640;2024-03-23T01:47:55;0.93;;;0.50;;
74102;SDS011;62853;46.166;3.640;2024-03-23T01:50:20;1.88;;;0.77;;
74102;SDS011;62853;46.166;3.640;2024-03-23T01:52:46;2.08;;;0.77;;
74102;SDS011;62853;46.166;3.640;2024-03-23T01:55:12;1.85;;;0.63;;
74102;SDS011;62853;46.166;3.640;2024-03-23T01:57:37;1.00;;;0.60;;
74102;SDS011;62853;46.166;3.640;2024-03-23T02:00:03;1.25;;;0.73;;
74102;SDS011;62853;46.166;3.640;2024-03-23T02:02:29;1.17;;;0.60;;
74102;SDS011;62853;46.166;3.640;2024-03-23T02:04:54;1.35;;;0.60;;
74102;SDS011;62853;46.166;3.640;2024-03-23T02:07:19;2.28;;;0.63;;
74102;SDS011;62853;46.166;3.640;2024-03-23T02:09:45;2.90;;;0.80;;
74102;SDS011;62853;46.166;3.640;2024-03-23T02:12:11;1.15;;;0.70;;
74102;SDS011;62853;46.166;3.640;2024-03-23T02:14:36;2.70;;;0.70;;
74102;SDS011;62853;46.166;3.640;2024-03-23T02:17:01;2.20;;;0.65;;
74102;SDS011;62853;46.166;3.640;2024-03-23T02:19:27;1.65;;;0.80;;
74102;SDS011;62853;46.166;3.640;2024-03-23T02:21:52;1.42;;;0.68;;
74102;SDS011;62853;46.166;3.640;2024-03-23T02:24:17;2.05;;;0.70;;
74102;SDS011;62853;46.166;3.640;2024-03-23T02:26:43;1.10;;;0.50;;
74102;SDS011;62853;46.166;3.640;2024-03-23T02:29:08;1.38;;;0.60;;
74102;SDS011;62853;46.166;3.640;2024-03-23T02:31:34;2.35;;;0.80;;
74102;SDS011;62853;46.166;3.640;2024-03-23T02:34:00;1.55;;;0.90;;
74102;SDS011;62853;46.166;3.640;2024-03-23T02:36:25;0.98;;;0.50;;
74102;SDS011;62853;46.166;3.640;2024-03-23T02:38:51;0.80;;;0.50;;
74102;SDS011;62853;46.166;3.640;2024-03-23T02:41:16;2.08;;;0.70;;
74102;SDS011;62853;46.166;3.640;2024-03-23T02:43:48;2.08;;;0.82;;
74102;SDS011;62853;46.166;3.640;2024-03-23T02:46:14;1.27;;;0.55;;
74102;SDS011;62853;46.166;3.640;2024-03-23T02:48:40;1.38;;;0.57;;
74102;SDS011;62853;46.166;3.640;2024-03-23T02:51:05;1.60;;;0.60;;
74102;SDS011;62853;46.166;3.640;2024-03-23T02:53:30;0.95;;;0.52;;
74102;SDS011;62853;46.166;3.640;2024-03-23T02:55:57;1.45;;;0.68;;
74102;SDS011;62853;46.166;3.640;2024-03-23T02:58:23;1.50;;;0.70;;
74102;SDS011;62853;46.166;3.640;2024-03-23T03:00:48;0.90;;;0.50;;
74102;SDS011;62853;46.166;3.640;2024-03-23T03:03:14;1.80;;;0.80;;
74102;SDS011;62853;46.166;3.640;2024-03-23T03:05:39;1.10;;;0.70;;
74102;SDS011;62853;46.166;3.640;2024-03-23T03:08:04;1.40;;;0.50;;
74102;SDS011;62853;46.166;3.640;2024-03-23T03:10:30;0.75;;;0.45;;
74102;SDS011;62853;46.166;3.640;2024-03-23T03:12:57;0.75;;;0.60;;
74102;SDS011;62853;46.166;3.640;2024-03-23T03:15:22;0.82;;;0.50;;
74102;SDS011;62853;46.166;3.640;2024-03-23T03:17:48;0.70;;;0.32;;
74102;SDS011;62853;46.166;3.640;2024-03-23T03:20:13;1.77;;;0.57;;
74102;SDS011;62853;46.166;3.640;2024-03-23T03:22:40;1.85;;;0.70;;
74102;SDS011;62853;46.166;3.640;2024-03-23T03:25:05;1.05;;;0.60;;
74102;SDS011;62853;46.166;3.640;2024-03-23T03:27:32;1.27;;;0.60;;
74102;SDS011;62853;46.166;3.640;2024-03-23T03:29:57;0.98;;;0.50;;
74102;SDS011;62853;46.166;3.640;2024-03-23T03:32:23;0.73;;;0.40;;
74102;SDS011;62853;46.166;3.640;2024-03-23T03:34:48;1.17;;;0.50;;
74102;SDS011;62853;46.166;3.640;2024-03-23T03:37:15;0.90;;;0.45;;
74102;SDS011;62853;46.166;3.640;2024-03-23T03:39:40;1.30;;;0.60;;
74102;SDS011;62853;46.166;3.640;2024-03-23T03:42:05;0.40;;;0.40;;
74102;SDS011;62853;46.166;3.640;2024-03-23T03:44:32;0.95;;;0.50;;
74102;SDS011;62853;46.166;3.640;2024-03-23T03:46:58;0.82;;;0.50;;
74102;SDS011;62853;46.166;3.640;2024-03-23T03:49:23;1.10;;;0.70;;
74102;SDS011;62853;46.166;3.640;2024-03-23T03:51:48;0.88;;;0.60;;
74102;SDS011;62853;46.166;3.640;2024-03-23T03:54:14;1.30;;;0.60;;
74102;SDS011;62853;46.166;3.640;2024-03-23T03:56:39;1.95;;;0.50;;
74102;SDS011;62853;46.166;3.640;2024-03-23T03:59:05;1.27;;;0.52;;
74102;SDS011;62853;46.166;3.640;2024-03-23T04:01:30;0.75;;;0.40;;
74102;SDS011;62853;46.166;3.640;2024-03-23T04:03:55;1.00;;;0.30;;
74102;SDS011;62853;46.166;3.640;2024-03-23T04:06:21;0.52;;;0.40;;
74102;SDS011;62853;46.166;3.640;2024-03-23T04:08:46;1.20;;;0.50;;
74102;SDS011;62853;46.166;3.640;2024-03-23T04:11:11;1.42;;;0.70;;
74102;SDS011;62853;46.166;3.640;2024-03-23T04:13:37;1.00;;;0.57;;
74102;SDS011;62853;46.166;3.640;2024-03-23T04:16:02;0.75;;;0.40;;
74102;SDS011;62853;46.166;3.640;2024-03-23T04:18:28;2.20;;;0.60;;
74102;SDS011;62853;46.166;3.640;2024-03-23T04:20:53;2.30;;;0.50;;
74102;SDS011;62853;46.166;3.640;2024-03-23T04:23:18;1.80;;;0.50;;
74102;SDS011;62853;46.166;3.640;2024-03-23T04:25:44;1.52;;;0.60;;
74102;SDS011;62853;46.166;3.640;2024-03-23T04:28:09;1.10;;;0.50;;
74102;SDS011;62853;46.166;3.640;2024-03-23T04:30:34;1.45;;;0.50;;
74102;SDS011;62853;46.166;3.640;2024-03-23T04:33:00;2.28;;;0.70;;
74102;SDS011;62853;46.166;3.640;2024-03-23T04:35:26;1.60;;;0.60;;
74102;SDS011;62853;46.166;3.640;2024-03-23T04:37:51;1.75;;;0.85;;
74102;SDS011;62853;46.166;3.640;2024-03-23T04:40:20;1.17;;;0.60;;
74102;SDS011;62853;46.166;3.640;2024-03-23T04:42:46;1.65;;;0.73;;
74102;SDS011;62853;46.166;3.640;2024-03-23T04:45:11;4.65;;;1.08;;
74102;SDS011;62853;46.166;3.640;2024-03-23T04:47:37;1.27;;;0.70;;
74102;SDS011;62853;46.166;3.640;2024-03-23T04:50:03;1.67;;;0.80;;
74102;SDS011;62853;46.166;3.640;2024-03-23T04:52:29;2.45;;;0.90;;
74102;SDS011;62853;46.166;3.640;2024-03-23T04:54:55;2.30;;;1.00;;
74102;SDS011;62853;46.166;3.640;2024-03-23T04:57:20;0.98;;;0.70;;
74102;SDS011;62853;46.166;3.640;2024-03-23T04:59:46;1.27;;;0.80;;
74102;SDS011;62853;46.166;3.640;2024-03-23T05:02:12;1.25;;;1.05;;
74102;SDS011;62853;46.166;3.640;2024-03-23T05:04:38;1.13;;;0.90;;
74102;SDS011;62853;46.166;3.640;2024-03-23T05:07:03;1.63;;;1.00;;
74102;SDS011;62853;46.166;3.640;2024-03-23T05:09:29;1.13;;;0.80;;
74102;SDS011;62853;46.166;3.640;2024-03-23T05:11:55;1.60;;;1.00;;
74102;SDS011;62853;46.166;3.640;2024-03-23T05:14:21;1.38;;;1.05;;
74102;SDS011;62853;46.166;3.640;2024-03-23T05:16:47;2.22;;;1.30;;
74102;SDS011;62853;46.166;3.640;2024-03-23T05:19:12;2.85;;;1.20;;
74102;SDS011;62853;46.166;3.640;2024-03-23T05:21:37;2.00;;;1.30;;
74102;SDS011;62853;46.166;3.640;2024-03-23T05:24:03;1.77;;;1.15;;
74102;SDS011;62853;46.166;3.640;2024-03-23T05:26:28;2.53;;;1.13;;
74102;SDS011;62853;46.166;3.640;2024-03-23T05:28:54;1.90;;;1.30;;
74102;SDS011;62853;46.166;3.640;2024-03-23T05:31:26;2.28;;;1.00;;
74102;SDS011;62853;46.166;3.640;2024-03-23T05:33:52;1.50;;;0.95;;
74102;SDS011;62853;46.166;3.640;2024-03-23T05:36:17;1.95;;;1.20;;
74102;SDS011;62853;46.166;3.640;2024-03-23T05:38:43;1.33;;;1.05;;
74102;SDS011;62853;46.166;3.640;2024-03-23T05:41:08;1.48;;;1.10;;
74102;SDS011;62853;46.166;3.640;2024-03-23T05:43:34;1.30;;;0.93;;
74102;SDS011;62853;46.166;3.640;2024-03-23T05:45:59;2.90;;;1.20;;
74102;SDS011;62853;46.166;3.640;2024-03-23T05:48:26;1.75;;;0.93;;
74102;SDS011;62853;46.166;3.640;2024-03-23T05:50:52;2.15;;;1.20;;
74102;SDS011;62853;46.166;3.640;2024-03-23T05:53:18;3.05;;;1.10;;
74102;SDS011;62853;46.166;3.640;2024-03-23T05:55:48;0.95;;;0.85;;
74102;SDS011;62853;46.166;3.640;2024-03-23T05:58:14;1.65;;;1.00;;
74102;SDS011;62853;46.166;3.640;2024-03-23T06:00:41;3.25;;;1.13;;
74102;SDS011;62853;46.166;3.640;2024-03-23T06:03:09;1.83;;;1.00;;
74102;SDS011;62853;46.166;3.640;2024-03-23T06:05:35;2.60;;;1.00;;
74102;SDS011;62853;46.166;3.640;2024-03-23T06:08:01;1.83;;;1.05;;
74102;SDS011;62853;46.166;3.640;2024-03-23T06:10:27;1.65;;;0.90;;
74102;SDS011;62853;46.166;3.640;2024-03-23T06:12:53;1.83;;;0.98;;
74102;SDS011;62853;46.166;3.640;2024-03-23T06:15:18;2.35;;;1.10;;
74102;SDS011;62853;46.166;3.640;2024-03-23T06:17:44;2.22;;;0.85;;
74102;SDS011;62853;46.166;3.640;2024-03-23T06:20:10;1.52;;;0.90;;
74102;SDS011;62853;46.166;3.640;2024-03-23T06:22:35;2.42;;;1.15;;
74102;SDS011;62853;46.166;3.640;2024-03-23T06:25:01;1.77;;;1.10;;
74102;SDS011;62853;46.166;3.640;2024-03-23T06:27:26;3.10;;;1.70;;
74102;SDS011;62853;46.166;3.640;2024-03-23T06:29:52;1.63;;;1.00;;
74102;SDS011;62853;46.166;3.640;2024-03-23T06:32:17;1.80;;;1.20;;
74102;SDS011;62853;46.166;3.640;2024-03-23T06:34:43;1.88;;;1.10;;
74102;SDS011;62853;46.166;3.640;2024-03-23T06:37:09;2.67;;;1.05;;
74102;SDS011;62853;46.166;3.640;2024-03-23T06:39:35;2.25;;;1.23;;
74102;SDS011;62853;46.166;3.640;2024-03-23T06:42:04;1.98;;;0.77;;
74102;SDS011;62853;46.166;3.640;2024-03-23T06:44:29;1.27;;;1.00;;
74102;SDS011;62853;46.166;3.640;2024-03-23T06:46:55;2.42;;;0.88;;
74102;SDS011;62853;46.166;3.640;2024-03-23T06:49:22;1.70;;;1.00;;
74102;SDS011;62853;46.166;3.640;2024-03-23T06:51:47;2.13;;;0.90;;
74102;SDS011;62853;46.166;3.640;2024-03-23T06:54:13;1.83;;;0.85;;
74102;SDS011;62853;46.166;3.640;2024-03-23T06:56:38;1.60;;;0.90;;
74102;SDS011;62853;46.166;3.640;2024-03-23T06:59:04;2.53;;;1.00;;
74102;SDS011;62853;46.166;3.640;2024-03-23T07:01:29;1.65;;;1.05;;
74102;SDS011;62853;46.166;3.640;2024-03-23T07:03:54;1.10;;;0.80;;
74102;SDS011;62853;46.166;3.640;2024-03-23T07:06:20;2.22;;;0.80;;
74102;SDS011;62853;46.166;3.640;2024-03-23T07:08:46;1.20;;;0.68;;
74102;SDS011;62853;46.166;3.640;2024-03-23T07:11:11;2.00;;;0.82;;
74102;SDS011;62853;46.166;3.640;2024-03-23T07:13:36;1.80;;;1.02;;
74102;SDS011;62853;46.166;3.640;2024-03-23T07:16:02;1.73;;;0.80;;
74102;SDS011;62853;46.166;3.640;2024-03-23T07:18:27;1.60;;;1.00;;
74102;SDS011;62853;46.166;3.640;2024-03-23T07:20:54;1.83;;;1.00;;
74102;SDS011;62853;46.166;3.640;2024-03-23T07:23:21;2.63;;;0.98;;
74102;SDS011;62853;46.166;3.640;2024-03-23T07:25:55;2.03;;;0.90;;
74102;SDS011;62853;46.166;3.640;2024-03-23T07:28:25;1.27;;;0.80;;
74102;SDS011;62853;46.166;3.640;2024-03-23T07:31:03;1.25;;;0.80;;
74102;SDS011;62853;46.166;3.640;2024-03-23T07:33:43;1.73;;;0.90;;
74102;SDS011;62853;46.166;3.640;2024-03-23T07:36:10;1.38;;;0.88;;
74102;SDS011;62853;46.166;3.640;2024-03-23T07:38:36;1.35;;;0.70;;
74102;SDS011;62853;46.166;3.640;2024-03-23T07:41:08;1.45;;;0.60;;
74102;SDS011;62853;46.166;3.640;2024-03-23T07:43:35;1.20;;;0.63;;
74102;SDS011;62853;46.166;3.640;2024-03-23T07:46:04;1.83;;;0.73;;
74102;SDS011;62853;46.166;3.640;2024-03-23T07:48:30;2.05;;;0.63;;
74102;SDS011;62853;46.166;3.640;2024-03-23T07:53:46;1.90;;;0.47;;
74102;SDS011;62853;46.166;3.640;2024-03-23T07:56:12;2.25;;;0.88;;
74102;SDS011;62853;46.166;3.640;2024-03-23T07:58:40;1.45;;;0.60;;
74102;SDS011;62853;46.166;3.640;2024-03-23T08:01:10;1.13;;;0.70;;
74102;SDS011;62853;46.166;3.640;2024-03-23T08:03:37;0.70;;;0.50;;
74102;SDS011;62853;46.166;3.640;2024-03-23T08:06:21;2.03;;;0.50;;
74102;SDS011;62853;46.166;3.640;2024-03-23T08:08:55;1.13;;;0.52;;
74102;SDS011;62853;46.166;3.640;2024-03-23T08:11:27;0.70;;;0.50;;
74102;SDS011;62853;46.166;3.640;2024-03-23T08:13:54;1.58;;;0.40;;
74102;SDS011;62853;46.166;3.640;2024-03-23T08:16:20;2.08;;;0.60;;
74102;SDS011;62853;46.166;3.640;2024-03-23T08:18:46;2.05;;;0.63;;
74102;SDS011;62853;46.166;3.640;2024-03-23T08:21:11;0.95;;;0.40;;
74102;SDS011;62853;46.166;3.640;2024-03-23T08:23:37;1.17;;;0.43;;
74102;SDS011;62853;46.166;3.640;2024-03-23T08:26:06;1.17;;;0.50;;
74102;SDS011;62853;46.166;3.640;2024-03-23T08:28:33;0.98;;;0.40;;
74102;SDS011;62853;46.166;3.640;2024-03-23T08:31:03;1.05;;;0.57;;
74102;SDS011;62853;46.166;3.640;2024-03-23T08:33:30;0.50;;;0.40;;
74102;SDS011;62853;46.166;3.640;2024-03-23T08:35:56;0.52;;;0.40;;
74102;SDS011;62853;46.166;3.640;2024-03-23T08:38:23;0.82;;;0.40;;
74102;SDS011;62853;46.166;3.640;2024-03-23T08:40:56;0.50;;;0.40;;
74102;SDS011;62853;46.166;3.640;2024-03-23T08:43:29;0.73;;;0.40;;
74102;SDS011;62853;46.166;3.640;2024-03-23T08:46:05;1.35;;;0.88;;
74102;SDS011;62853;46.166;3.640;2024-03-23T08:48:35;2.20;;;0.52;;
74102;SDS011;62853;46.166;3.640;2024-03-23T08:51:05;1.40;;;0.43;;
74102;SDS011;62853;46.166;3.640;2024-03-23T08:53:31;1.83;;;0.45;;
74102;SDS011;62853;46.166;3.640;2024-03-23T08:55:58;0.82;;;0.47;;
74102;SDS011;62853;46.166;3.640;2024-03-23T08:58:24;0.98;;;0.40;;
74102;SDS011;62853;46.166;3.640;2024-03-23T09:00:51;0.40;;;0.30;;
74102;SDS011;62853;46.166;3.640;2024-03-23T09:03:17;0.30;;;0.28;;
74102;SDS011;62853;46.166;3.640;2024-03-23T09:05:43;1.65;;;0.40;;
74102;SDS011;62853;46.166;3.640;2024-03-23T09:08:09;0.60;;;0.30;;
74102;SDS011;62853;46.166;3.640;2024-03-23T09:10:38;1.83;;;0.40;;
74102;SDS011;62853;46.166;3.640;2024-03-23T09:13:04;0.85;;;0.35;;
74102;SDS011;62853;46.166;3.640;2024-03-23T09:15:30;1.20;;;0.28;;
74102;SDS011;62853;46.166;3.640;2024-03-23T09:17:56;3.83;;;0.60;;
74102;SDS011;62853;46.166;3.640;2024-03-23T09:20:21;3.33;;;0.75;;
74102;SDS011;62853;46.166;3.640;2024-03-23T09:22:47;3.30;;;0.60;;
74102;SDS011;62853;46.166;3.640;2024-03-23T09:25:13;2.28;;;0.90;;
74102;SDS011;62853;46.166;3.640;2024-03-23T09:27:39;3.47;;;0.93;;
74102;SDS011;62853;46.166;3.640;2024-03-23T09:30:04;2.63;;;0.88;;
74102;SDS011;62853;46.166;3.640;2024-03-23T09:32:30;2.95;;;0.80;;
74102;SDS011;62853;46.166;3.640;2024-03-23T09:34:55;4.40;;;1.05;;
74102;SDS011;62853;46.166;3.640;2024-03-23T09:37:21;3.95;;;0.93;;
74102;SDS011;62853;46.166;3.640;2024-03-23T09:39:46;4.60;;;1.15;;
74102;SDS011;62853;46.166;3.640;2024-03-23T09:42:11;5.07;;;1.23;;
74102;SDS011;62853;46.166;3.640;2024-03-23T09:44:37;7.65;;;1.55;;
74102;SDS011;62853;46.166;3.640;2024-03-23T09:47:02;6.25;;;1.20;;
74102;SDS011;62853;46.166;3.640;2024-03-23T09:49:28;5.10;;;1.20;;
74102;SDS011;62853;46.166;3.640;2024-03-23T09:51:54;5.68;;;1.30;;
74102;SDS011;62853;46.166;3.640;2024-03-23T09:54:21;5.85;;;1.23;;
74102;SDS011;62853;46.166;3.640;2024-03-23T09:56:46;5.63;;;1.50;;
74102;SDS011;62853;46.166;3.640;2024-03-23T09:59:12;5.53;;;1.73;;
74102;SDS011;62853;46.166;3.640;2024-03-23T10:01:37;6.90;;;1.70;;
74102;SDS011;62853;46.166;3.640;2024-03-23T10:04:03;5.95;;;1.85;;
74102;SDS011;62853;46.166;3.640;2024-03-23T10:06:28;5.68;;;1.50;;
74102;SDS011;62853;46.166;3.640;2024-03-23T10:08:54;5.45;;;1.75;;
74102;SDS011;62853;46.166;3.640;2024-03-23T10:11:20;4.65;;;1.38;;
74102;SDS011;62853;46.166;3.640;2024-03-23T10:13:46;4.22;;;1.23;;
74102;SDS011;62853;46.166;3.640;2024-03-23T10:16:12;4.18;;;1.30;;
74102;SDS011;62853;46.166;3.640;2024-03-23T10:18:46;3.92;;;1.10;;
74102;SDS011;62853;46.166;3.640;2024-03-23T10:21:13;3.28;;;0.90;;
74102;SDS011;62853;46.166;3.640;2024-03-23T10:23:40;3.33;;;0.85;;
74102;SDS011;62853;46.166;3.640;2024-03-23T10:28:58;5.00;;;1.00;;
74102;SDS011;62853;46.166;3.640;2024-03-23T10:31:33;4.10;;;1.38;;
74102;SDS011;62853;46.166;3.640;2024-03-23T10:34:00;3.72;;;0.98;;
74102;SDS011;62853;46.166;3.640;2024-03-23T10:36:28;3.83;;;1.25;;
74102;SDS011;62853;46.166;3.640;2024-03-23T10:38:55;4.10;;;1.10;;
74102;SDS011;62853;46.166;3.640;2024-03-23T10:41:23;7.15;;;1.75;;
74102;SDS011;62853;46.166;3.640;2024-03-23T10:43:51;4.80;;;1.20;;
74102;SDS011;62853;46.166;3.640;2024-03-23T10:46:16;3.42;;;1.40;;
74102;SDS011;62853;46.166;3.640;2024-03-23T10:48:42;5.25;;;1.25;;
74102;SDS011;62853;46.166;3.640;2024-03-23T10:51:09;4.78;;;1.40;;
74102;SDS011;62853;46.166;3.640;2024-03-23T10:53:35;3.72;;;1.23;;
74102;SDS011;62853;46.166;3.640;2024-03-23T10:56:02;5.80;;;1.65;;
74102;SDS011;62853;46.166;3.640;2024-03-23T10:58:31;3.15;;;1.30;;
74102;SDS011;62853;46.166;3.640;2024-03-23T11:00:58;7.15;;;1.80;;
74102;SDS011;62853;46.166;3.640;2024-03-23T11:03:33;4.55;;;1.52;;
74102;SDS011;62853;46.166;3.640;2024-03-23T11:06:03;5.10;;;1.48;;
74102;SDS011;62853;46.166;3.640;2024-03-23T11:08:31;5.25;;;1.40;;
74102;SDS011;62853;46.166;3.640;2024-03-23T11:13:49;6.25;;;1.48;;
74102;SDS011;62853;46.166;3.640;2024-03-23T11:16:16;5.15;;;2.10;;
74102;SDS011;62853;46.166;3.640;2024-03-23T11:24:20;3.90;;;1.27;;
74102;SDS011;62853;46.166;3.640;2024-03-23T11:26:47;2.55;;;0.95;;
74102;SDS011;62853;46.166;3.640;2024-03-23T11:29:13;1.52;;;0.68;;
74102;SDS011;62853;46.166;3.640;2024-03-23T11:31:51;2.30;;;0.80;;
74102;SDS011;62853;46.166;3.640;2024-03-23T11:34:20;2.95;;;1.10;;
74102;SDS011;62853;46.166;3.640;2024-03-23T11:36:46;4.03;;;1.15;;
74102;SDS011;62853;46.166;3.640;2024-03-23T11:39:16;3.30;;;1.13;;
74102;SDS011;62853;46.166;3.640;2024-03-23T11:41:49;2.67;;;1.00;;
74102;SDS011;62853;46.166;3.640;2024-03-23T11:44:19;3.80;;;1.05;;
74102;SDS011;62853;46.166;3.640;2024-03-23T11:46:46;2.92;;;0.73;;
74102;SDS011;62853;46.166;3.640;2024-03-23T11:49:24;5.45;;;1.23;;
74102;SDS011;62853;46.166;3.640;2024-03-23T11:51:51;3.13;;;0.90;;
74102;SDS011;62853;46.166;3.640;2024-03-23T11:54:25;2.55;;;0.70;;
74102;SDS011;62853;46.166;3.640;2024-03-23T11:57:01;2.95;;;0.82;;
74102;SDS011;62853;46.166;3.640;2024-03-23T11:59:35;0.68;;;0.50;;
74102;SDS011;62853;46.166;3.640;2024-03-23T12:02:12;1.85;;;0.70;;
74102;SDS011;62853;46.166;3.640;2024-03-23T12:04:41;2.90;;;0.82;;
74102;SDS011;62853;46.166;3.640;2024-03-23T12:09:35;3.22;;;0.70;;
74102;SDS011;62853;46.166;3.640;2024-03-23T12:12:11;1.83;;;0.80;;
74102;SDS011;62853;46.166;3.640;2024-03-23T12:14:45;3.70;;;0.82;;
74102;SDS011;62853;46.166;3.640;2024-03-23T12:17:25;2.00;;;0.80;;
74102;SDS011;62853;46.166;3.640;2024-03-23T12:19:51;3.67;;;0.90;;
74102;SDS011;62853;46.166;3.640;2024-03-23T12:22:20;3.67;;;0.88;;
74102;SDS011;62853;46.166;3.640;2024-03-23T12:24:45;3.28;;;1.10;;
74102;SDS011;62853;46.166;3.640;2024-03-23T12:27:11;3.30;;;0.80;;
74102;SDS011;62853;46.166;3.640;2024-03-23T12:29:36;2.53;;;0.77;;
74102;SDS011;62853;46.166;3.640;2024-03-23T12:32:04;4.82;;;1.20;;
74102;SDS011;62853;46.166;3.640;2024-03-23T12:34:29;2.58;;;0.90;;
74102;SDS011;62853;46.166;3.640;2024-03-23T12:36:55;3.00;;;0.90;;
74102;SDS011;62853;46.166;3.640;2024-03-23T12:39:21;3.75;;;0.80;;
74102;SDS011;62853;46.166;3.640;2024-03-23T12:41:47;2.63;;;0.80;;
74102;SDS011;62853;46.166;3.640;2024-03-23T12:44:13;1.90;;;0.60;;
74102;SDS011;62853;46.166;3.640;2024-03-23T12:46:40;1.40;;;0.60;;
74102;SDS011;62853;46.166;3.640;2024-03-23T12:49:06;1.48;;;0.30;;
74102;SDS011;62853;46.166;3.640;2024-03-23T12:51:31;1.10;;;0.35;;
74102;SDS011;62853;46.166;3.640;2024-03-23T12:53:57;0.20;;;0.20;;
74102;SDS011;62853;46.166;3.640;2024-03-23T12:56:23;0.35;;;0.20;;
74102;SDS011;62853;46.166;3.640;2024-03-23T12:58:48;1.02;;;0.40;;
74102;SDS011;62853;46.166;3.640;2024-03-23T13:01:16;0.30;;;0.20;;
74102;SDS011;62853;46.166;3.640;2024-03-23T13:03:42;0.50;;;0.25;;
74102;SDS011;62853;46.166;3.640;2024-03-23T13:06:09;1.70;;;0.20;;
74102;SDS011;62853;46.166;3.640;2024-03-23T13:08:35;0.88;;;0.30;;
74102;SDS011;62853;46.166;3.640;2024-03-23T13:11:00;1.55;;;0.38;;
74102;SDS011;62853;46.166;3.640;2024-03-23T13:13:26;0.50;;;0.30;;
74102;SDS011;62853;46.166;3.640;2024-03-23T13:15:51;1.95;;;0.57;;
74102;SDS011;62853;46.166;3.640;2024-03-23T13:18:16;2.08;;;0.50;;
74102;SDS011;62853;46.166;3.640;2024-03-23T13:20:42;4.28;;;0.73;;
74102;SDS011;62853;46.166;3.640;2024-03-23T13:23:07;2.13;;;0.73;;
74102;SDS011;62853;46.166;3.640;2024-03-23T13:25:33;5.82;;;0.95;;
74102;SDS011;62853;46.166;3.640;2024-03-23T13:27:59;3.47;;;0.90;;
74102;SDS011;62853;46.166;3.640;2024-03-23T13:30:24;3.50;;;1.05;;
74102;SDS011;62853;46.166;3.640;2024-03-23T13:32:50;2.45;;;0.73;;
74102;SDS011;62853;46.166;3.640;2024-03-23T13:35:15;4.13;;;0.77;;
74102;SDS011;62853;46.166;3.640;2024-03-23T13:37:41;2.22;;;0.70;;
74102;SDS011;62853;46.166;3.640;2024-03-23T13:40:07;1.55;;;0.70;;
74102;SDS011;62853;46.166;3.640;2024-03-23T13:42:33;3.38;;;0.80;;
74102;SDS011;62853;46.166;3.640;2024-03-23T13:44:58;3.17;;;0.60;;
74102;SDS011;62853;46.166;3.640;2024-03-23T13:47:23;2.13;;;0.75;;
74102;SDS011;62853;46.166;3.640;2024-03-23T13:49:49;2.78;;;0.90;;
74102;SDS011;62853;46.166;3.640;2024-03-23T13:52:14;1.95;;;0.75;;
74102;SDS011;62853;46.166;3.640;2024-03-23T13:54:39;2.08;;;0.77;;
74102;SDS011;62853;46.166;3.640;2024-03-23T13:57:10;4.53;;;0.98;;
74102;SDS011;62853;46.166;3.640;2024-03-23T13:59:35;3.10;;;0.95;;
74102;SDS011;62853;46.166;3.640;2024-03-23T14:02:01;3.00;;;0.80;;
74102;SDS011;62853;46.166;3.640;2024-03-23T14:04:26;2.72;;;1.00;;
74102;SDS011;62853;46.166;3.640;2024-03-23T14:06:52;4.57;;;1.00;;
74102;SDS011;62853;46.166;3.640;2024-03-23T14:09:17;4.05;;;1.27;;
74102;SDS011;62853;46.166;3.640;2024-03-23T14:11:48;4.18;;;1.23;;
74102;SDS011;62853;46.166;3.640;2024-03-23T14:14:13;3.50;;;1.13;;
74102;SDS011;62853;46.166;3.640;2024-03-23T14:16:42;3.75;;;1.05;;
74102;SDS011;62853;46.166;3.640;2024-03-23T14:19:08;4.30;;;0.90;;
74102;SDS011;62853;46.166;3.640;2024-03-23T14:21:33;5.03;;;1.02;;
74102;SDS011;62853;46.166;3.640;2024-03-23T14:24:03;4.32;;;0.85;;
74102;SDS011;62853;46.166;3.640;2024-03-23T14:26:29;4.05;;;1.08;;
74102;SDS011;62853;46.166;3.640;2024-03-23T14:28:54;2.85;;;0.98;;
74102;SDS011;62853;46.166;3.640;2024-03-23T14:31:19;3.70;;;1.35;;
74102;SDS011;62853;46.166;3.640;2024-03-23T14:33:45;2.50;;;1.05;;
74102;SDS011;62853;46.166;3.640;2024-03-23T14:36:15;3.47;;;0.82;;
74102;SDS011;62853;46.166;3.640;2024-03-23T14:38:42;3.22;;;0.98;;
74102;SDS011;62853;46.166;3.640;2024-03-23T14:41:08;3.58;;;1.05;;
74102;SDS011;62853;46.166;3.640;2024-03-23T14:43:33;2.40;;;0.82;;
74102;SDS011;62853;46.166;3.640;2024-03-23T14:46:08;4.60;;;1.30;;
74102;SDS011;62853;46.166;3.640;2024-03-23T14:48:35;3.35;;;1.10;;
74102;SDS011;62853;46.166;3.640;2024-03-23T14:51:00;3.60;;;1.00;;
74102;SDS011;62853;46.166;3.640;2024-03-23T14:53:29;3.72;;;1.20;;
74102;SDS011;62853;46.166;3.640;2024-03-23T14:55:55;3.28;;;1.00;;
74102;SDS011;62853;46.166;3.640;2024-03-23T14:58:21;5.00;;;1.27;;
74102;SDS011;62853;46.166;3.640;2024-03-23T15:00:47;3.47;;;1.27;;
74102;SDS011;62853;46.166;3.640;2024-03-23T15:03:13;5.20;;;1.48;;
74102;SDS011;62853;46.166;3.640;2024-03-23T15:05:38;3.70;;;1.15;;
74102;SDS011;62853;46.166;3.640;2024-03-23T15:08:04;2.85;;;1.00;;
74102;SDS011;62853;46.166;3.640;2024-03-23T15:10:30;3.00;;;1.20;;
74102;SDS011;62853;46.166;3.640;2024-03-23T15:12:58;3.53;;;1.10;;
74102;SDS011;62853;46.166;3.640;2024-03-23T15:15:23;3.22;;;1.10;;
74102;SDS011;62853;46.166;3.640;2024-03-23T15:17:48;2.95;;;1.10;;
74102;SDS011;62853;46.166;3.640;2024-03-23T15:20:15;2.63;;;1.00;;
74102;SDS011;62853;46.166;3.640;2024-03-23T15:22:40;2.17;;;0.93;;
74102;SDS011;62853;46.166;3.640;2024-03-23T15:25:07;3.42;;;1.25;;
74102;SDS011;62853;46.166;3.640;2024-03-23T15:27:33;3.22;;;0.80;;
74102;SDS011;62853;46.166;3.640;2024-03-23T15:29:58;2.15;;;0.80;;
74102;SDS011;62853;46.166;3.640;2024-03-23T15:32:24;2.40;;;0.70;;
74102;SDS011;62853;46.166;3.640;2024-03-23T15:34:49;3.47;;;1.00;;
74102;SDS011;62853;46.166;3.640;2024-03-23T15:37:15;2.83;;;1.00;;
74102;SDS011;62853;46.166;3.640;2024-03-23T15:39:41;2.55;;;1.25;;
74102;SDS011;62853;46.166;3.640;2024-03-23T15:42:09;1.88;;;0.90;;
74102;SDS011;62853;46.166;3.640;2024-03-23T15:44:35;1.55;;;0.70;;
74102;SDS011;62853;46.166;3.640;2024-03-23T15:47:00;1.52;;;0.60;;
74102;SDS011;62853;46.166;3.640;2024-03-23T15:49:26;1.77;;;0.90;;
74102;SDS011;62853;46.166;3.640;2024-03-23T15:51:51;2.90;;;0.80;;
74102;SDS011;62853;46.166;3.640;2024-03-23T15:54:16;2.00;;;0.80;;